Time;durP1;ratioP1;P1;durP2;ratioP2;P2;SDS_P1;SDS_P2;PMS_P1;PMS_P2;Temp;Humidity;BMP_temperature;BMP_pressure;BME280_temperature;BME280_humidity;BME280_pressure;Samples;Min_cycle;Max_cycle;Signal;HPM_P1;HPM_P2
2021/10/28 00:15:37;;;;;;;13.15;8.38;;;12.70;99.90;;;;;;5048366;28;20056;-84
2021/10/28 00:20:31;;;;;;;10.77;8.05;;;12.80;99.90;;;;;;5048257;28;20029;-84
2021/10/28 00:22:57;;;;;;;10.93;7.93;;;12.70;99.90;;;;;;5047309;28;20035;-83
2021/10/28 00:25:23;;;;;;;15.02;8.45;;;12.70;99.90;;;;;;5049773;28;20021;-83
2021/10/28 00:27:52;;;;;;;10.75;8.10;;;12.70;99.90;;;;;;5046347;28;20079;-84
2021/10/28 00:30:19;;;;;;;13.18;8.50;;;12.70;99.90;;;;;;5044313;28;20029;-83
2021/10/28 00:32:45;;;;;;;13.00;9.15;;;12.70;99.90;;;;;;5046846;28;20026;-83
2021/10/28 00:35:13;;;;;;;15.63;8.75;;;12.80;99.90;;;;;;5049660;28;20060;-85
2021/10/28 00:37:39;;;;;;;11.98;9.45;;;12.70;99.90;;;;;;5048529;28;20404;-85
2021/10/28 00:40:09;;;;;;;11.32;8.50;;;12.70;99.90;;;;;;5042337;28;20025;-83
2021/10/28 00:42:38;;;;;;;;;;;12.70;99.90;;;;;;5049383;28;20477;-84
2021/10/28 00:45:05;;;;;;;11.45;8.10;;;12.70;99.90;;;;;;5047526;28;19913;-84
2021/10/28 00:47:36;;;;;;;11.80;8.18;;;12.70;99.90;;;;;;5046189;28;20059;-84
2021/10/28 00:50:04;;;;;;;11.50;8.52;;;12.70;99.90;;;;;;5048837;28;20426;-84
2021/10/28 00:52:30;;;;;;;12.45;8.20;;;12.80;99.90;;;;;;5047443;28;20062;-84
2021/10/28 00:54:56;;;;;;;14.13;8.32;;;12.80;99.90;;;;;;5048065;28;20029;-84
2021/10/28 00:57:21;;;;;;;9.73;7.18;;;12.80;99.90;;;;;;5049100;28;20028;-84
2021/10/28 00:59:47;;;;;;;11.60;8.18;;;12.70;99.90;;;;;;5048891;28;20040;-84
2021/10/28 01:02:14;;;;;;;12.80;8.77;;;12.70;99.90;;;;;;5045405;28;20128;-83
2021/10/28 01:04:40;;;;;;;11.00;8.82;;;12.70;99.90;;;;;;5049091;28;20033;-84
2021/10/28 01:07:06;;;;;;;12.57;8.32;;;12.70;99.90;;;;;;5046967;28;20024;-84
2021/10/28 01:09:32;;;;;;;10.88;8.45;;;12.80;99.90;;;;;;5046497;28;20048;-84
2021/10/28 01:11:58;;;;;;;11.43;8.10;;;12.70;99.90;;;;;;5048915;28;20029;-84
2021/10/28 01:14:24;;;;;;;13.32;8.23;;;12.80;99.90;;;;;;5048258;28;20025;-85
2021/10/28 01:16:55;;;;;;;11.38;7.75;;;12.70;99.90;;;;;;5047991;28;20017;-83
2021/10/28 01:19:22;;;;;;;10.65;7.50;;;12.70;99.90;;;;;;5047114;28;20107;-83
2021/10/28 01:21:49;;;;;;;11.38;8.13;;;12.70;99.90;;;;;;5046710;28;20017;-85
2021/10/28 01:24:15;;;;;;;12.18;7.43;;;12.70;99.90;;;;;;5046746;28;20021;-85
2021/10/28 01:26:41;;;;;;;11.65;8.00;;;12.70;99.90;;;;;;5046699;28;20021;-82
2021/10/28 01:29:07;;;;;;;11.38;8.25;;;12.70;99.90;;;;;;5048932;28;20063;-85
2021/10/28 01:31:34;;;;;;;10.70;8.00;;;12.70;99.90;;;;;;5045396;28;20028;-83
2021/10/28 01:34:02;;;;;;;9.90;7.20;;;12.70;99.90;;;;;;5041939;28;20079;-84
2021/10/28 01:36:28;;;;;;;12.05;7.68;;;12.70;99.90;;;;;;5047334;28;20040;-84
2021/10/28 01:38:54;;;;;;;11.20;7.68;;;12.70;99.90;;;;;;5044659;28;20424;-84
2021/10/28 01:41:21;;;;;;;11.10;7.68;;;12.70;99.90;;;;;;5048124;28;20041;-83
2021/10/28 01:43:47;;;;;;;10.80;7.60;;;12.70;99.90;;;;;;5050448;28;20037;-84
2021/10/28 01:46:13;;;;;;;9.73;7.47;;;12.70;99.90;;;;;;5045893;28;20521;-85
2021/10/28 01:48:40;;;;;;;12.73;8.35;;;12.70;99.90;;;;;;5047696;28;20044;-83
2021/10/28 01:51:10;;;;;;;11.45;7.30;;;12.70;99.90;;;;;;5040805;28;20026;-85
2021/10/28 01:53:41;;;;;;;11.13;7.45;;;12.70;99.90;;;;;;5042337;28;20017;-82
2021/10/28 01:56:08;;;;;;;10.63;7.10;;;12.70;99.90;;;;;;5046079;28;20052;-82
2021/10/28 01:58:35;;;;;;;8.95;6.28;;;12.60;99.90;;;;;;5049373;28;20029;-85
2021/10/28 02:01:01;;;;;;;10.82;7.45;;;12.60;99.90;;;;;;5046520;28;20029;-83
2021/10/28 02:03:27;;;;;;;9.80;7.80;;;12.60;99.90;;;;;;5045133;28;20028;-83
2021/10/28 02:05:53;;;;;;;9.40;6.40;;;12.60;99.90;;;;;;5055978;28;20025;-84
2021/10/28 02:08:19;;;;;;;7.20;5.85;;;12.60;99.90;;;;;;5062735;28;20108;-83
2021/10/28 02:10:46;;;;;;;8.70;6.75;;;12.70;99.90;;;;;;5052574;28;20071;-83
2021/10/28 02:13:13;;;;;;;10.93;6.70;;;12.60;99.90;;;;;;5047551;28;20112;-84
2021/10/28 02:15:40;;;;;;;7.68;5.82;;;12.60;99.90;;;;;;5049229;28;20416;-83
2021/10/28 02:18:06;;;;;;;8.80;6.45;;;12.60;99.90;;;;;;5041821;28;20029;-84
2021/10/28 02:20:32;;;;;;;10.35;7.10;;;12.60;99.90;;;;;;5052781;28;20044;-84
2021/10/28 02:22:58;;;;;;;9.57;6.40;;;12.60;99.90;;;;;;5054129;28;20032;-84
2021/10/28 02:25:24;;;;;;;8.52;6.72;;;12.60;99.90;;;;;;5050730;28;20506;-83
2021/10/28 02:27:50;;;;;;;10.27;7.32;;;12.60;99.90;;;;;;5049484;28;20055;-82
2021/10/28 02:30:16;;;;;;;15.05;8.18;;;12.60;99.90;;;;;;5049594;28;20484;-84
2021/10/28 02:32:42;;;;;;;11.85;8.50;;;12.60;99.90;;;;;;5052240;28;20064;-85
2021/10/28 02:35:09;;;;;;;10.63;7.60;;;12.60;99.90;;;;;;5051579;28;20032;-84
2021/10/28 02:37:35;;;;;;;9.48;7.63;;;12.60;99.90;;;;;;5052411;28;20045;-84
2021/10/28 02:40:01;;;;;;;10.95;8.10;;;12.60;99.90;;;;;;5049872;28;20031;-84
2021/10/28 02:42:26;;;;;;;12.70;8.13;;;12.60;99.90;;;;;;5051165;28;20063;-83
2021/10/28 02:44:52;;;;;;;10.43;7.72;;;12.60;99.90;;;;;;5051709;28;20602;-84
2021/10/28 02:47:18;;;;;;;11.18;7.90;;;12.50;99.90;;;;;;5051333;28;20017;-84
2021/10/28 02:49:44;;;;;;;11.25;8.07;;;12.50;99.90;;;;;;5051489;28;20039;-84
2021/10/28 02:52:10;;;;;;;11.65;8.75;;;12.50;99.90;;;;;;5051067;28;20142;-84
2021/10/28 02:54:38;;;;;;;11.18;7.35;;;12.50;99.90;;;;;;5048649;28;20028;-85
2021/10/28 02:57:07;;;;;;;13.98;8.25;;;12.50;99.90;;;;;;5050714;28;20090;-83
2021/10/28 02:59:33;;;;;;;10.90;7.68;;;12.50;99.90;;;;;;5050960;28;20029;-83
2021/10/28 03:01:59;;;;;;;11.43;7.22;;;12.50;99.90;;;;;;5051842;28;20447;-84
2021/10/28 03:04:25;;;;;;;10.38;7.53;;;12.50;99.90;;;;;;5052616;28;20477;-84
2021/10/28 03:06:51;;;;;;;12.60;7.80;;;12.50;99.90;;;;;;5049671;28;20063;-84
2021/10/28 03:09:23;;;;;;;10.25;7.88;;;12.50;99.90;;;;;;5049226;28;20099;-84
2021/10/28 03:11:52;;;;;;;11.10;7.60;;;12.50;99.90;;;;;;5048793;28;20026;-83
2021/10/28 03:14:21;;;;;;;12.38;8.73;;;12.50;99.90;;;;;;5050521;28;20536;-84
2021/10/28 03:16:59;;;;;;;10.95;7.05;;;12.50;99.90;;;;;;5049960;28;20025;-83
2021/10/28 03:27:28;;;;;;;11.18;7.88;;;12.40;99.90;;;;;;5050638;28;20083;-84
2021/10/28 03:29:55;;;;;;;10.15;7.50;;;12.40;99.90;;;;;;5048891;28;20025;-84
2021/10/28 03:32:26;;;;;;;11.60;7.93;;;12.30;99.90;;;;;;5049132;28;20029;-84
2021/10/28 03:34:52;;;;;;;11.32;7.55;;;12.30;99.90;;;;;;5051078;28;20498;-83
2021/10/28 03:37:37;;;;;;;9.27;6.88;;;12.40;99.90;;;;;;5048572;28;20114;-84
2021/10/28 04:06:14;;;;;;;8.90;7.13;;;12.30;99.90;;;;;;5050060;28;20120;-84
2021/10/28 04:29:55;;;;;;;11.50;8.43;;;12.20;99.90;;;;;;5048579;28;20065;-83
2021/10/28 04:32:21;;;;;;;13.02;8.70;;;12.20;99.90;;;;;;5048145;28;20025;-84
2021/10/28 04:34:47;;;;;;;11.48;7.75;;;12.20;99.90;;;;;;5048979;28;20086;-85
2021/10/28 04:37:13;;;;;;;11.75;9.00;;;12.20;99.90;;;;;;5046045;28;20384;-84
2021/10/28 04:39:39;;;;;;;13.10;8.15;;;12.20;99.90;;;;;;5046261;28;20539;-85
2021/10/28 04:42:05;;;;;;;14.73;8.18;;;12.20;99.90;;;;;;5046946;28;20043;-84
2021/10/28 04:44:30;;;;;;;12.18;8.65;;;12.20;99.90;;;;;;5047518;28;20048;-84
2021/10/28 04:46:56;;;;;;;12.75;7.65;;;12.20;99.90;;;;;;5044515;28;20476;-83
2021/10/28 04:49:22;;;;;;;11.70;8.82;;;12.10;99.90;;;;;;5046559;28;20378;-83
2021/10/28 04:51:50;;;;;;;10.20;7.65;;;12.10;99.90;;;;;;5046067;28;20029;-85
2021/10/28 04:54:15;;;;;;;11.45;8.52;;;12.10;99.90;;;;;;5049427;28;20054;-84
2021/10/28 04:56:41;;;;;;;13.18;8.80;;;12.10;99.90;;;;;;5047490;28;20017;-82
2021/10/28 04:59:07;;;;;;;12.90;8.82;;;12.10;99.90;;;;;;5049231;28;20029;-83
2021/10/28 05:01:34;;;;;;;14.00;9.35;;;12.10;99.90;;;;;;5048996;28;20427;-84
2021/10/28 05:03:59;;;;;;;11.60;8.35;;;12.10;99.90;;;;;;5046790;28;20037;-84
2021/10/28 05:06:25;;;;;;;12.57;9.55;;;12.10;99.90;;;;;;5043052;28;20021;-83
2021/10/28 05:08:51;;;;;;;13.07;8.90;;;12.10;99.90;;;;;;5044959;28;20495;-84
2021/10/28 05:11:18;;;;;;;13.05;9.07;;;12.10;99.90;;;;;;5049471;28;20500;-84
2021/10/28 05:13:44;;;;;;;12.00;9.48;;;12.10;99.90;;;;;;5066649;28;20059;-84
2021/10/28 05:16:09;;;;;;;17.00;8.80;;;12.10;99.90;;;;;;5063035;28;20018;-82
2021/10/28 05:18:41;;;;;;;16.02;8.65;;;12.10;99.90;;;;;;5049099;28;20484;-84
2021/10/28 05:21:12;;;;;;;11.60;8.30;;;12.10;99.90;;;;;;5044847;28;20110;-84
2021/10/28 05:23:39;;;;;;;11.35;7.97;;;12.10;99.90;;;;;;5049130;28;20108;-82
2021/10/28 05:26:05;;;;;;;11.73;7.60;;;12.10;99.90;;;;;;5037315;28;20108;-84
2021/10/28 05:28:32;;;;;;;14.15;8.25;;;12.10;99.90;;;;;;5049297;28;20059;-85
2021/10/28 05:30:58;;;;;;;10.10;7.82;;;12.10;99.90;;;;;;5046763;28;20025;-84
2021/10/28 05:33:23;;;;;;;9.68;7.53;;;12.10;99.90;;;;;;5048601;28;20842;-82
2021/10/28 05:35:49;;;;;;;11.38;7.90;;;12.10;99.90;;;;;;5047557;28;20078;-82
2021/10/28 05:38:15;;;;;;;9.93;8.50;;;12.10;99.90;;;;;;5044932;28;20088;-82
2021/10/28 05:40:40;;;;;;;12.95;8.70;;;12.10;99.90;;;;;;5048308;28;20057;-85
2021/10/28 05:43:08;;;;;;;12.68;7.55;;;12.10;99.90;;;;;;5048362;28;20086;-84
2021/10/28 05:45:34;;;;;;;10.98;7.85;;;12.10;99.90;;;;;;5043030;28;20510;-83
2021/10/28 05:48:00;;;;;;;11.35;7.60;;;12.10;99.90;;;;;;5046938;28;20473;-85
2021/10/28 05:50:26;;;;;;;11.07;8.23;;;12.10;99.90;;;;;;5046640;28;20041;-85
2021/10/28 05:52:53;;;;;;;17.10;8.15;;;12.10;99.90;;;;;;5052207;28;20037;-84
2021/10/28 05:55:24;;;;;;;9.23;7.45;;;12.10;99.90;;;;;;5050750;28;20040;-84
2021/10/28 05:57:50;;;;;;;13.40;7.22;;;12.20;99.90;;;;;;5050160;28;20024;-84
2021/10/28 06:00:18;;;;;;;8.93;8.02;;;12.20;99.90;;;;;;5051776;28;20037;-84
2021/10/28 06:02:43;;;;;;;13.02;7.47;;;12.20;99.90;;;;;;5048123;28;20167;-85
2021/10/28 06:05:09;;;;;;;13.45;8.35;;;12.20;99.90;;;;;;5052578;28;20103;-84
2021/10/28 06:07:35;;;;;;;11.70;7.47;;;12.20;99.90;;;;;;5053306;28;20025;-85
2021/10/28 06:10:02;;;;;;;11.55;8.27;;;12.20;99.90;;;;;;5049305;28;20044;-85
2021/10/28 06:12:32;;;;;;;12.75;8.48;;;12.20;99.90;;;;;;5050067;28;20021;-83
2021/10/28 06:14:59;;;;;;;12.18;8.13;;;12.20;99.90;;;;;;5046831;28;20025;-85
2021/10/28 06:17:33;;;;;;;9.77;7.82;;;12.20;99.90;;;;;;5051803;28;20021;-85
2021/10/28 06:20:00;;;;;;;13.32;8.25;;;12.20;99.90;;;;;;5053968;28;20154;-84
2021/10/28 06:22:29;;;;;;;11.40;7.65;;;12.30;99.90;;;;;;5051075;28;20025;-83
2021/10/28 06:24:56;;;;;;;11.55;7.55;;;12.30;99.90;;;;;;5050978;28;20029;-85
2021/10/28 06:27:22;;;;;;;11.70;7.82;;;12.30;99.90;;;;;;5052587;28;20381;-85
2021/10/28 06:29:48;;;;;;;13.32;8.63;;;12.30;99.90;;;;;;5050439;28;20049;-84
2021/10/28 06:32:14;;;;;;;11.27;8.45;;;12.30;99.90;;;;;;5052854;28;20017;-85
2021/10/28 06:34:43;;;;;;;14.07;9.20;;;12.30;99.90;;;;;;5052045;28;20465;-85
2021/10/28 06:37:10;;;;;;;11.73;8.52;;;12.40;99.90;;;;;;5050261;28;20041;-84
2021/10/28 06:39:36;;;;;;;10.90;8.93;;;12.40;99.90;;;;;;5050601;28;20086;-85
2021/10/28 06:42:03;;;;;;;12.18;9.32;;;12.30;99.90;;;;;;5050332;28;20025;-84
2021/10/28 06:44:30;;;;;;;14.27;9.10;;;12.40;99.90;;;;;;5050719;28;20507;-85
2021/10/28 06:46:56;;;;;;;12.45;9.82;;;12.30;99.90;;;;;;5054000;28;20029;-84
2021/10/28 06:49:23;;;;;;;14.55;10.38;;;12.40;99.90;;;;;;5050103;28;20043;-83
2021/10/28 06:51:48;;;;;;;19.25;11.23;;;12.30;99.90;;;;;;5052061;28;20025;-84
2021/10/28 06:54:35;;;;;;;13.50;9.95;;;12.40;99.90;;;;;;5050143;28;20400;-83
2021/10/28 07:02:34;;;;;;;13.65;10.02;;;12.40;99.90;;;;;;5048284;28;20056;-85
2021/10/28 07:05:01;;;;;;;14.87;11.37;;;12.40;99.90;;;;;;5047543;28;20098;-82
2021/10/28 07:07:29;;;;;;;15.30;11.20;;;12.50;99.90;;;;;;5052160;28;20492;-85
2021/10/28 07:10:09;;;;;;;17.90;11.55;;;12.50;99.90;;;;;;5049016;28;20387;-85
2021/10/28 07:12:52;;;;;;;17.45;11.80;;;12.50;99.90;;;;;;5048233;28;20082;-84
2021/10/28 07:18:05;;;;;;;15.82;12.30;;;12.60;99.90;;;;;;5049341;28;20501;-84
2021/10/28 07:21:26;;;;;;;15.88;11.90;;;12.60;99.90;;;;;;5037553;28;20033;-85
2021/10/28 07:32:14;;;;;;;13.13;11.65;;;12.70;99.90;;;;;;5048910;28;20047;-84
2021/10/28 08:17:40;;;;;;;13.73;12.32;;;13.20;99.90;;;;;;4974142;28;20142;-84
2021/10/28 08:21:15;;;;;;;15.55;11.95;;;13.30;99.90;;;;;;5001668;28;20200;-82
2021/10/28 08:31:05;;;;;;;14.57;12.13;;;13.40;99.90;;;;;;4981453;28;20100;-84
2021/10/28 08:33:31;;;;;;;14.73;12.93;;;13.40;99.90;;;;;;4983859;28;20043;-84
2021/10/28 08:36:07;;;;;;;15.18;12.88;;;13.40;99.90;;;;;;4999287;28;20386;-83
2021/10/28 08:38:37;;;;;;;14.07;12.60;;;13.40;99.90;;;;;;4989650;28;20042;-85
2021/10/28 08:41:06;;;;;;;19.08;13.23;;;13.50;99.90;;;;;;4979261;28;20663;-84
2021/10/28 08:43:36;;;;;;;14.70;12.27;;;13.50;99.90;;;;;;4977901;28;20042;-82
2021/10/28 08:46:07;;;;;;;14.38;12.65;;;13.50;99.90;;;;;;5011176;28;20570;-82
2021/10/28 08:48:34;;;;;;;14.88;12.30;;;13.50;99.90;;;;;;5047754;28;20082;-84
2021/10/28 08:51:16;;;;;;;14.82;12.90;;;13.50;99.90;;;;;;5048323;28;20025;-83
2021/10/28 08:57:24;;;;;;;14.57;12.40;;;13.60;99.90;;;;;;5049175;28;20047;-84
2021/10/28 09:24:41;;;;;;;12.90;11.60;;;14.10;99.90;;;;;;5043415;28;20136;-84
2021/10/28 09:27:11;;;;;;;13.32;12.02;;;14.10;99.90;;;;;;5036455;28;20069;-84
2021/10/28 09:32:26;;;;;;;14.98;12.10;;;14.20;99.90;;;;;;5049941;28;20040;-85
2021/10/28 09:44:02;;;;;;;13.80;12.18;;;14.40;99.90;;;;;;5052549;28;20468;-84
2021/10/28 09:46:45;;;;;;;14.82;11.45;;;14.40;99.90;;;;;;5050183;28;20024;-83
2021/10/28 09:51:53;;;;;;;14.38;11.73;;;14.60;99.90;;;;;;5041072;28;20053;-84
2021/10/28 09:54:40;;;;;;;14.40;12.88;;;14.60;99.90;;;;;;5048691;28;20036;-83
2021/10/28 09:59:54;;;;;;;13.82;11.45;;;14.80;99.90;;;;;;5047054;28;20041;-83
2021/10/28 10:02:40;;;;;;;14.35;11.82;;;14.80;99.90;;;;;;5048862;28;20416;-84
2021/10/28 10:05:18;;;;;;;16.85;11.23;;;14.80;99.90;;;;;;5046533;28;20115;-83
2021/10/28 10:07:52;;;;;;;14.45;11.15;;;14.80;99.90;;;;;;5049322;28;20083;-82
2021/10/28 10:10:20;;;;;;;13.35;11.02;;;14.80;99.90;;;;;;5047144;28;20033;-84
2021/10/28 10:12:47;;;;;;;13.85;11.75;;;14.90;99.90;;;;;;5047195;28;20029;-83
2021/10/28 10:15:14;;;;;;;14.38;10.82;;;14.90;99.90;;;;;;5046217;28;20148;-83
2021/10/28 10:17:50;;;;;;;15.52;10.88;;;15.00;99.90;;;;;;5046648;28;20029;-83
2021/10/28 10:20:19;;;;;;;12.25;9.88;;;15.10;99.90;;;;;;5048619;28;20155;-83
2021/10/28 10:23:15;;;;;;;13.77;10.55;;;15.10;99.90;;;;;;5049020;28;20112;-83
2021/10/28 11:06:04;;;;;;;14.07;8.33;;;14.90;99.90;;;;;;5032739;28;20118;-82
2021/10/28 12:44:10;;;;;;;10.45;7.78;;;15.30;99.90;;;;;;4984573;28;20045;-84
2021/10/28 12:55:08;;;;;;;15.43;9.90;;;15.10;99.90;;;;;;5047401;28;20116;-84
2021/10/28 13:35:54;;;;;;;14.40;11.75;;;14.70;99.90;;;;;;5049473;28;20207;-84
2021/10/28 13:57:27;;;;;;;13.07;11.77;;;14.10;99.90;;;;;;5039449;28;20059;-84
2021/10/28 14:16:37;;;;;;;15.93;13.95;;;13.70;99.90;;;;;;5049559;28;20052;-85
2021/10/28 15:01:42;;;;;;;19.02;14.68;;;12.20;99.90;;;;;;5048968;28;20032;-85
2021/10/28 15:28:45;;;;;;;18.27;14.93;;;11.20;99.90;;;;;;5048486;28;20140;-86
2021/10/28 15:36:46;;;;;;;17.90;14.77;;;10.90;99.90;;;;;;5046147;28;20048;-86
2021/10/28 15:39:30;;;;;;;20.35;15.82;;;10.90;99.90;;;;;;5041266;28;20029;-83
2021/10/28 16:21:55;;;;;;;26.38;19.90;;;9.70;99.90;;;;;;5042072;28;20575;-85
2021/10/28 16:24:27;;;;;;;25.13;19.00;;;9.60;99.90;;;;;;5050828;28;20049;-85
2021/10/28 16:26:54;;;;;;;28.40;20.63;;;9.60;99.90;;;;;;5053086;28;20033;-84
2021/10/28 16:29:20;;;;;;;24.70;21.02;;;9.50;99.90;;;;;;5050103;28;20112;-86
2021/10/28 16:31:47;;;;;;;27.15;20.23;;;9.60;99.90;;;;;;5047886;28;20389;-85
2021/10/28 16:34:14;;;;;;;23.45;19.63;;;9.50;99.90;;;;;;5042463;28;20025;-86
2021/10/28 16:36:41;;;;;;;24.88;21.42;;;9.50;99.90;;;;;;5039777;28;20037;-85
2021/10/28 16:39:11;;;;;;;28.00;21.52;;;9.40;99.90;;;;;;5046696;28;20048;-86
2021/10/28 16:41:43;;;;;;;28.35;20.67;;;9.30;99.90;;;;;;5044688;28;20399;-86
2021/10/28 16:44:10;;;;;;;32.45;21.35;;;9.30;99.90;;;;;;5045525;28;20695;-87
2021/10/28 16:46:37;;;;;;;25.92;19.15;;;9.20;99.90;;;;;;5045584;28;20045;-85
2021/10/28 16:49:07;;;;;;;20.40;18.10;;;9.20;99.90;;;;;;5039632;28;20036;-84
2021/10/28 16:51:33;;;;;;;26.13;21.33;;;9.10;99.90;;;;;;5042863;28;20094;-84
2021/10/28 16:53:59;;;;;;;24.63;20.23;;;9.00;99.90;;;;;;5049326;28;20112;-85
2021/10/28 16:56:25;;;;;;;25.20;18.90;;;9.00;99.90;;;;;;5032244;28;20120;-85
2021/10/28 16:58:51;;;;;;;24.20;17.95;;;9.10;99.90;;;;;;5050548;28;20507;-85
2021/10/28 17:01:17;;;;;;;19.00;15.95;;;9.00;99.90;;;;;;5047163;28;20050;-85
2021/10/28 17:03:42;;;;;;;25.05;17.80;;;8.90;99.90;;;;;;5050048;28;20112;-84
2021/10/28 17:06:11;;;;;;;28.25;22.30;;;8.90;99.90;;;;;;5046284;28;20104;-85
2021/10/28 17:08:37;;;;;;;26.88;21.88;;;8.90;99.90;;;;;;5047197;28;20128;-86
2021/10/28 17:11:04;;;;;;;23.20;17.92;;;8.80;99.90;;;;;;5017375;28;20048;-85
2021/10/28 17:13:29;;;;;;;27.70;20.17;;;8.80;99.90;;;;;;5027195;28;20511;-85
2021/10/28 17:15:55;;;;;;;29.35;22.20;;;8.80;99.90;;;;;;5037079;28;20017;-84
2021/10/28 17:18:21;;;;;;;29.85;22.20;;;8.90;99.90;;;;;;5048870;28;20112;-84
2021/10/28 17:20:47;;;;;;;28.75;22.70;;;8.80;99.90;;;;;;5039669;28;20031;-85
2021/10/28 17:23:17;;;;;;;32.42;24.23;;;8.70;99.90;;;;;;5049301;28;20108;-85
2021/10/28 17:25:50;;;;;;;25.98;21.98;;;8.80;99.90;;;;;;5029943;28;20055;-86
2021/10/28 17:28:16;;;;;;;30.20;21.98;;;8.80;99.90;;;;;;5037227;28;20056;-85
2021/10/28 17:30:42;;;;;;;29.52;22.30;;;8.70;99.90;;;;;;5040846;28;20032;-85
2021/10/28 17:33:08;;;;;;;26.85;22.02;;;8.70;99.90;;;;;;5035260;28;20116;-84
2021/10/28 17:35:34;;;;;;;31.77;21.17;;;8.60;99.90;;;;;;5046252;28;20123;-85
2021/10/28 17:38:01;;;;;;;26.83;20.20;;;8.60;99.90;;;;;;5024046;28;20073;-85
2021/10/28 17:40:27;;;;;;;31.80;23.27;;;8.50;99.90;;;;;;5042676;28;20455;-86
2021/10/28 17:42:55;;;;;;;34.28;24.48;;;8.50;99.90;;;;;;5043768;28;20027;-84
2021/10/28 17:45:25;;;;;;;31.08;21.45;;;8.50;99.90;;;;;;5068154;28;20040;-84
2021/10/28 17:47:53;;;;;;;36.50;25.20;;;8.40;99.90;;;;;;5047509;28;20044;-85
2021/10/28 17:50:19;;;;;;;28.83;21.55;;;8.30;99.90;;;;;;5040416;28;20091;-85
2021/10/28 17:52:46;;;;;;;33.13;22.48;;;8.40;99.90;;;;;;5049457;28;20116;-84
2021/10/28 17:55:12;;;;;;;28.70;20.80;;;8.40;99.90;;;;;;5034066;28;20386;-85
2021/10/28 17:57:40;;;;;;;30.17;24.52;;;8.20;99.90;;;;;;5040503;28;20098;-86
2021/10/28 18:00:07;;;;;;;32.28;25.10;;;8.30;99.90;;;;;;5034386;28;20033;-85
2021/10/28 18:02:34;;;;;;;33.47;25.38;;;8.20;99.90;;;;;;5044202;28;20025;-85
2021/10/28 18:05:00;;;;;;;30.63;23.88;;;8.20;99.90;;;;;;5040049;28;20033;-86
2021/10/28 18:07:26;;;;;;;42.08;28.50;;;8.10;99.90;;;;;;5040933;28;21399;-86
2021/10/28 18:09:51;;;;;;;40.50;28.77;;;8.10;99.90;;;;;;5045199;28;20135;-84
2021/10/28 18:12:17;;;;;;;33.05;23.65;;;8.00;99.90;;;;;;5039552;28;20060;-83
2021/10/28 18:14:43;;;;;;;36.75;24.80;;;8.00;99.90;;;;;;5037996;28;20021;-86
2021/10/28 18:17:11;;;;;;;36.72;26.80;;;8.00;99.90;;;;;;5039043;28;20022;-86
2021/10/28 18:19:38;;;;;;;34.05;25.70;;;8.00;99.90;;;;;;5038879;28;20029;-85
2021/10/28 18:22:05;;;;;;;39.50;27.83;;;7.90;99.90;;;;;;5041780;28;20031;-84
2021/10/28 18:24:31;;;;;;;35.22;24.67;;;7.80;99.90;;;;;;5044865;28;20086;-86
2021/10/28 18:26:57;;;;;;;38.47;27.08;;;7.80;99.90;;;;;;5034958;28;20025;-86
2021/10/28 18:29:23;;;;;;;34.17;25.83;;;7.80;99.90;;;;;;5040094;28;20040;-85
2021/10/28 18:31:49;;;;;;;41.40;28.70;;;7.80;99.90;;;;;;5043497;28;20472;-85
2021/10/28 18:34:15;;;;;;;40.63;28.05;;;7.80;99.90;;;;;;5032725;28;20504;-85
2021/10/28 18:36:41;;;;;;;40.35;27.13;;;7.70;99.90;;;;;;5040564;28;20041;-84
2021/10/28 18:39:09;;;;;;;36.97;27.27;;;7.70;99.90;;;;;;5037221;28;20625;-84
2021/10/28 18:41:35;;;;;;;43.10;30.30;;;7.70;99.90;;;;;;5046071;28;20071;-85
2021/10/28 18:44:01;;;;;;;36.28;27.75;;;7.70;99.90;;;;;;5034717;28;20033;-84
2021/10/28 18:46:27;;;;;;;44.25;32.30;;;7.60;99.90;;;;;;5044705;28;20104;-85
2021/10/28 18:48:57;;;;;;;41.72;29.80;;;7.60;99.90;;;;;;5040325;28;20037;-85
2021/10/28 18:51:22;;;;;;;40.55;28.80;;;7.60;99.90;;;;;;5040114;28;20036;-85
2021/10/28 18:53:49;;;;;;;47.25;32.33;;;7.50;99.90;;;;;;5045559;28;20384;-85
2021/10/28 18:56:16;;;;;;;44.47;31.92;;;7.40;99.90;;;;;;5037637;28;20033;-85
2021/10/28 18:58:43;;;;;;;48.15;31.17;;;7.40;99.90;;;;;;5049233;28;20029;-85
2021/10/28 19:01:10;;;;;;;46.33;33.60;;;7.50;99.90;;;;;;5031820;28;20045;-85
2021/10/28 19:03:38;;;;;;;46.58;32.28;;;7.40;99.90;;;;;;5045001;28;20033;-85
2021/10/28 19:06:04;;;;;;;50.95;33.13;;;7.50;99.90;;;;;;5046078;28;20398;-86
2021/10/28 19:08:30;;;;;;;54.13;35.72;;;7.60;99.90;;;;;;5042846;28;20328;-85
2021/10/28 19:10:55;;;;;;;47.35;33.90;;;7.60;99.90;;;;;;5050691;28;20041;-85
2021/10/28 19:13:21;;;;;;;46.90;34.03;;;7.60;99.90;;;;;;5033099;28;20009;-85
2021/10/28 19:15:48;;;;;;;52.78;35.20;;;7.60;99.90;;;;;;5045279;28;20130;-85
2021/10/28 19:18:14;;;;;;;49.00;34.45;;;7.50;99.90;;;;;;5033809;28;20040;-85
2021/10/28 19:20:39;;;;;;;51.08;36.63;;;7.60;99.90;;;;;;5048045;28;20041;-85
2021/10/28 19:23:07;;;;;;;53.17;36.40;;;7.60;99.90;;;;;;5038606;28;20040;-84
2021/10/28 19:25:34;;;;;;;49.47;34.22;;;7.60;99.90;;;;;;5042277;28;20039;-86
2021/10/28 19:28:00;;;;;;;61.90;39.92;;;7.60;99.90;;;;;;5040145;28;20508;-84
2021/10/28 19:30:41;;;;;;;50.65;36.55;;;7.60;99.90;;;;;;5039212;28;20040;-85
2021/10/28 19:33:18;;;;;;;59.83;36.80;;;7.60;99.90;;;;;;5045485;28;20018;-86
2021/10/28 19:35:52;;;;;;;48.67;36.10;;;7.60;99.90;;;;;;5036054;28;20029;-86
2021/10/28 19:46:14;;;;;;;47.35;33.45;;;7.40;99.90;;;;;;5042430;28;20447;-83
2021/10/28 19:48:41;;;;;;;50.28;34.08;;;7.50;99.90;;;;;;5032833;28;20046;-85
2021/10/28 19:51:08;;;;;;;64.13;40.95;;;7.40;99.90;;;;;;5040464;28;20033;-85
2021/10/28 19:53:34;;;;;;;55.72;37.70;;;7.40;99.90;;;;;;5027637;28;20041;-83
2021/10/28 19:56:12;;;;;;;56.80;38.08;;;7.40;99.90;;;;;;5045834;28;20102;-82
2021/10/28 19:58:46;;;;;;;54.83;38.33;;;7.30;99.90;;;;;;5031842;28;20032;-85
2021/10/28 20:01:23;;;;;;;48.35;33.78;;;7.20;99.90;;;;;;5038519;28;20614;-85
2021/10/28 20:22:22;;;;;;;54.92;36.10;;;7.00;99.90;;;;;;5045805;28;20515;-85
2021/10/28 20:24:48;;;;;;;49.33;36.65;;;7.00;99.90;;;;;;5045426;28;20021;-84
2021/10/28 20:27:14;;;;;;;55.65;37.55;;;7.10;99.90;;;;;;5048479;28;20372;-86
2021/10/28 20:29:39;;;;;;;61.53;40.78;;;7.00;99.90;;;;;;5035168;28;20045;-85
2021/10/28 20:32:05;;;;;;;55.25;38.13;;;7.10;99.90;;;;;;5052084;28;20151;-84
2021/10/28 20:37:10;;;;;;;57.58;38.95;;;6.90;99.90;;;;;;5041838;28;20402;-84
2021/10/28 20:39:39;;;;;;;60.72;40.50;;;6.90;99.90;;;;;;5047020;28;20040;-86
2021/10/28 20:42:05;;;;;;;59.13;40.00;;;6.80;99.90;;;;;;5042002;28;20108;-85
2021/10/28 20:44:30;;;;;;;59.15;38.60;;;6.80;99.90;;;;;;5047451;28;20032;-86
2021/10/28 20:46:56;;;;;;;62.45;38.95;;;6.70;99.90;;;;;;5050822;28;20408;-82
2021/10/28 20:49:22;;;;;;;62.92;38.17;;;6.70;99.90;;;;;;5065961;28;20025;-86
2021/10/28 20:51:47;;;;;;;56.85;40.33;;;6.70;99.90;;;;;;5060364;28;20095;-85
2021/10/28 20:54:13;;;;;;;57.03;39.53;;;6.70;99.90;;;;;;5040742;28;20025;-84
2021/10/28 20:56:39;;;;;;;69.15;44.42;;;6.60;99.90;;;;;;5049645;28;20031;-83
2021/10/28 20:59:05;;;;;;;63.97;42.80;;;6.60;99.90;;;;;;5048199;28;20029;-84
2021/10/28 21:01:31;;;;;;;57.67;41.05;;;6.60;99.90;;;;;;5047353;28;20025;-83
2021/10/28 21:03:57;;;;;;;54.63;37.90;;;6.50;99.90;;;;;;5049534;28;20056;-85
2021/10/28 21:06:23;;;;;;;54.08;38.05;;;6.50;99.90;;;;;;5046121;28;20056;-84
2021/10/28 21:08:49;;;;;;;55.92;39.33;;;6.40;99.90;;;;;;5047418;28;20535;-85
2021/10/28 21:11:15;;;;;;;52.47;37.88;;;6.40;99.90;;;;;;5049015;28;20028;-85
2021/10/28 21:13:41;;;;;;;58.67;39.38;;;6.40;99.90;;;;;;5046993;28;20412;-86
2021/10/28 21:16:07;;;;;;;59.50;38.55;;;6.40;99.90;;;;;;5046536;28;20480;-85
2021/10/28 21:18:32;;;;;;;58.63;38.03;;;6.40;99.90;;;;;;5044955;28;20021;-85
2021/10/28 21:20:58;;;;;;;59.22;39.03;;;6.40;99.90;;;;;;5048709;28;20025;-86
2021/10/28 21:23:24;;;;;;;59.25;40.10;;;6.40;99.90;;;;;;5048468;28;20021;-84
2021/10/28 21:25:50;;;;;;;52.58;36.53;;;6.50;99.90;;;;;;5044504;28;20405;-85
2021/10/28 21:28:16;;;;;;;55.50;38.30;;;6.40;99.90;;;;;;5039383;28;20068;-84
2021/10/28 21:30:45;;;;;;;52.92;34.95;;;6.40;99.90;;;;;;5047220;28;20044;-84
2021/10/28 21:33:12;;;;;;;57.00;39.40;;;6.40;99.90;;;;;;5047274;28;20039;-84
2021/10/28 21:35:38;;;;;;;58.15;38.92;;;6.40;99.90;;;;;;5047211;28;20048;-84
2021/10/28 21:38:04;;;;;;;64.53;40.17;;;6.30;99.90;;;;;;5050935;28;20138;-83
2021/10/28 21:40:29;;;;;;;55.53;37.08;;;6.30;99.90;;;;;;5043656;28;20036;-84
2021/10/28 21:42:57;;;;;;;54.97;37.20;;;6.30;99.90;;;;;;5044120;28;20040;-84
2021/10/28 21:45:23;;;;;;;54.53;37.90;;;6.20;99.90;;;;;;5048172;28;20017;-84